createdAt,value
2024-04-18T00:03:54.745Z,2.87
2024-04-18T00:08:56.350Z,2.47
2024-04-18T00:13:57.883Z,2.10
2024-04-18T00:18:59.502Z,2.30
2024-04-18T00:24:01.187Z,2.30
2024-04-18T00:29:02.727Z,2.20
2024-04-18T00:34:04.263Z,2.37
2024-04-18T00:39:05.817Z,2.60
2024-04-18T00:44:07.357Z,2.67
2024-04-18T00:49:09.027Z,2.60
2024-04-18T00:54:10.655Z,2.50
2024-04-18T00:59:12.247Z,2.50
2024-04-18T01:04:13.928Z,2.47
2024-04-18T01:09:15.629Z,2.53
2024-04-18T01:14:17.179Z,2.50
2024-04-18T01:19:18.731Z,3.20
2024-04-18T01:24:20.366Z,2.30
2024-04-18T01:29:21.985Z,2.50
2024-04-18T01:34:23.556Z,2.80
2024-04-18T01:39:25.204Z,2.67
2024-04-18T01:44:26.750Z,2.70
2024-04-18T01:49:28.284Z,2.50
2024-04-18T01:54:29.857Z,2.50
2024-04-18T01:59:31.389Z,2.53
2024-04-18T02:04:33.018Z,2.57
2024-04-18T02:09:34.802Z,2.67
2024-04-18T02:14:36.406Z,2.60
2024-04-18T02:19:37.938Z,2.00
2024-04-18T02:24:39.481Z,2.13
2024-04-18T02:29:41.012Z,2.13
2024-04-18T02:34:42.532Z,2.47
2024-04-18T02:39:44.080Z,2.23
2024-04-18T02:44:45.691Z,2.60
2024-04-18T02:49:47.253Z,2.40
2024-04-18T02:54:48.912Z,2.10
2024-04-18T02:59:50.535Z,2.20
2024-04-18T03:04:52.071Z,2.00
2024-04-18T03:09:53.638Z,2.30
2024-04-18T03:14:55.207Z,2.70
2024-04-18T03:19:56.747Z,2.20
2024-04-18T03:24:58.425Z,1.90
2024-04-18T03:30:00.052Z,2.23
2024-04-18T03:35:01.607Z,2.10
2024-04-18T03:40:03.149Z,1.90
2024-04-18T03:45:04.706Z,2.40
2024-04-18T03:50:06.250Z,2.23
2024-04-18T03:55:07.894Z,2.27
2024-04-18T04:00:09.503Z,1.90
2024-04-18T04:05:11.056Z,2.07
2024-04-18T04:10:12.598Z,1.73
2024-04-18T04:15:14.208Z,1.87
2024-04-18T04:20:15.866Z,1.90
2024-04-18T04:25:17.713Z,1.80
2024-04-18T04:30:19.263Z,2.30
2024-04-18T04:35:20.847Z,1.90
2024-04-18T04:40:22.616Z,2.83
2024-04-18T04:45:24.201Z,2.30
2024-04-18T04:50:25.753Z,2.03
2024-04-18T04:55:27.296Z,1.83
2024-04-18T05:00:28.855Z,1.73
2024-04-18T05:05:30.423Z,1.80
2024-04-18T05:10:32.050Z,2.03
2024-04-18T05:15:33.637Z,2.27
2024-04-18T05:20:35.260Z,1.60
2024-04-18T05:25:36.951Z,2.17
2024-04-18T05:30:38.594Z,1.90
2024-04-18T05:35:40.180Z,1.60
2024-04-18T05:40:41.761Z,2.00
2024-04-18T05:45:43.331Z,1.60
2024-04-18T05:50:44.892Z,1.87
2024-04-18T05:55:46.452Z,1.73
2024-04-18T06:00:48.064Z,2.03
2024-04-18T06:05:49.639Z,1.80
2024-04-18T06:10:51.175Z,1.53
2024-04-18T06:15:52.813Z,1.40
2024-04-18T06:20:54.462Z,2.07
2024-04-18T06:25:55.993Z,1.87
2024-04-18T06:30:57.625Z,1.83
2024-04-18T06:35:59.186Z,1.80
2024-04-18T06:41:00.777Z,1.90
2024-04-18T06:46:02.386Z,2.50
2024-04-18T06:51:03.969Z,2.30
2024-04-18T06:56:05.551Z,2.30
2024-04-18T07:01:07.190Z,1.90
2024-04-18T07:06:08.843Z,2.00
2024-04-18T07:11:10.403Z,1.70
2024-04-18T07:16:11.938Z,2.03
2024-04-18T07:21:13.525Z,1.90
2024-04-18T07:26:15.159Z,1.87
2024-04-18T07:31:16.754Z,1.80
2024-04-18T07:36:18.284Z,1.93
2024-04-18T07:41:19.814Z,1.70
2024-04-18T07:46:21.349Z,1.80
2024-04-18T07:51:22.931Z,1.70
2024-04-18T07:56:25.433Z,1.90
2024-04-18T08:01:28.705Z,1.87
2024-04-18T08:06:32.996Z,1.73
2024-04-18T08:16:40.834Z,1.70
2024-04-18T08:21:42.417Z,1.67
2024-04-18T08:26:43.985Z,1.83
2024-04-18T08:31:45.563Z,1.60
2024-04-18T08:36:47.123Z,1.40
2024-04-18T08:41:48.696Z,1.60
2024-04-18T08:46:50.278Z,1.77
2024-04-18T08:51:51.857Z,2.00
2024-04-18T08:56:53.403Z,1.50
2024-04-18T09:01:54.943Z,2.10
2024-04-18T09:06:56.500Z,1.70
2024-04-18T09:11:58.068Z,1.83
2024-04-18T09:16:59.621Z,1.83
2024-04-18T09:22:01.167Z,1.60
2024-04-18T09:27:02.761Z,2.10
2024-04-18T09:32:04.374Z,1.57
2024-04-18T09:37:05.902Z,1.57
2024-04-18T09:42:07.501Z,1.70
2024-04-18T09:47:09.093Z,1.83
2024-04-18T09:52:10.604Z,1.47
2024-04-18T09:57:12.290Z,1.40
2024-04-18T10:02:13.933Z,1.50
2024-04-18T10:07:15.494Z,1.60
2024-04-18T10:12:17.056Z,1.80
2024-04-18T10:17:18.637Z,1.90
2024-04-18T10:22:29.481Z,1.47
2024-04-18T10:27:38.430Z,1.30
2024-04-18T10:32:40.059Z,1.87
2024-04-18T10:37:41.664Z,1.43
2024-04-18T10:42:43.248Z,1.40
2024-04-18T10:47:44.949Z,1.53
2024-04-18T10:52:46.515Z,1.30
2024-04-18T10:57:48.123Z,1.40
2024-04-18T11:02:49.697Z,1.20
2024-04-18T11:07:51.235Z,1.70
2024-04-18T11:12:52.765Z,1.10
2024-04-18T11:17:54.466Z,1.30
2024-04-18T11:23:01.528Z,1.60
2024-04-18T11:28:10.602Z,1.30
2024-04-18T11:33:12.467Z,1.50
2024-04-18T11:38:14.406Z,1.70
2024-04-18T11:43:15.978Z,1.73
2024-04-18T11:48:17.667Z,1.63
2024-04-18T11:53:19.301Z,1.80
2024-04-18T11:58:20.856Z,1.67
2024-04-18T12:03:22.465Z,1.60
2024-04-18T12:08:24.054Z,1.77
2024-04-18T12:13:25.589Z,1.57
2024-04-18T12:18:27.161Z,1.60
2024-04-18T12:23:28.731Z,2.30
2024-04-18T12:28:30.270Z,1.97
2024-04-18T12:33:31.918Z,1.63
2024-04-18T12:38:33.521Z,1.27
2024-04-18T12:43:35.130Z,1.70
2024-04-18T12:48:37.847Z,1.60
2024-04-18T12:53:40.935Z,1.30
2024-04-18T12:58:42.530Z,1.33
2024-04-18T13:03:44.205Z,1.60
2024-04-18T13:08:45.816Z,1.20
2024-04-18T13:13:47.341Z,1.60
2024-04-18T13:18:48.943Z,1.60
2024-04-18T13:23:50.548Z,1.83
2024-04-18T13:28:52.083Z,1.40
2024-04-18T13:33:55.076Z,1.50
2024-04-18T13:38:58.065Z,1.30
2024-04-18T13:43:59.637Z,1.40
2024-04-18T13:49:01.247Z,1.27
2024-04-18T13:54:02.826Z,1.30
2024-04-18T13:59:04.392Z,1.60
2024-04-18T14:04:06.067Z,1.13
2024-04-18T14:09:10.770Z,1.50
2024-04-18T14:14:12.704Z,1.47
2024-04-18T14:19:14.286Z,1.13
2024-04-18T14:24:15.903Z,1.20
2024-04-18T14:29:17.512Z,1.80
2024-04-18T14:34:19.236Z,1.23
2024-04-18T14:39:20.860Z,1.23
2024-04-18T14:44:22.441Z,1.60
2024-04-18T14:49:23.957Z,1.03
2024-04-18T14:54:25.525Z,1.30
2024-04-18T14:59:27.107Z,1.00
2024-04-18T15:04:31.593Z,1.53
2024-04-18T15:09:33.591Z,1.30
2024-04-18T15:14:35.215Z,0.97
2024-04-18T15:19:36.774Z,1.50
2024-04-18T15:24:38.467Z,1.37
2024-04-18T15:29:40.102Z,1.27
2024-04-18T15:34:41.642Z,1.53
2024-04-18T15:39:43.237Z,1.30
2024-04-18T15:44:44.815Z,1.40
2024-04-18T15:49:46.349Z,1.00
2024-04-18T15:54:47.872Z,1.40
2024-04-18T15:59:49.395Z,1.20
2024-04-18T16:04:51.899Z,1.17
2024-04-18T16:09:53.464Z,1.43
2024-04-18T16:14:54.996Z,1.30
2024-04-18T16:19:56.521Z,1.30
2024-04-18T16:24:58.067Z,1.20
2024-04-18T16:29:59.612Z,1.07
2024-04-18T16:35:01.151Z,1.10
2024-04-18T16:40:02.692Z,1.27
2024-04-18T16:45:04.281Z,1.23
2024-04-18T16:50:05.835Z,1.10
2024-04-18T16:55:07.375Z,1.23
2024-04-18T17:00:08.981Z,1.10
2024-04-18T17:05:10.598Z,1.20
2024-04-18T17:10:12.177Z,1.20
2024-04-18T17:15:14.041Z,1.43
2024-04-18T17:20:15.578Z,1.53
2024-04-18T17:25:17.153Z,1.67
2024-04-18T17:30:18.741Z,1.57
2024-04-18T17:35:20.307Z,1.60
2024-04-18T17:40:21.882Z,1.93
2024-04-18T17:45:23.439Z,2.20
2024-04-18T17:50:25.001Z,2.57
2024-04-18T17:55:26.562Z,2.50
2024-04-18T18:00:28.150Z,2.23
2024-04-18T18:05:29.707Z,2.10
2024-04-18T18:10:31.261Z,2.23
2024-04-18T18:15:32.876Z,2.33
2024-04-18T18:20:34.417Z,1.90
2024-04-18T18:25:35.991Z,2.63
2024-04-18T18:30:37.590Z,2.67
2024-04-18T18:35:39.124Z,2.50
2024-04-18T18:40:40.677Z,2.20
2024-04-18T18:45:42.232Z,2.40
2024-04-18T18:50:43.784Z,2.20
2024-04-18T18:55:45.321Z,2.40
2024-04-18T19:00:46.958Z,2.03
2024-04-18T19:05:48.529Z,2.10
2024-04-18T19:10:50.068Z,2.17
2024-04-18T19:15:51.593Z,2.10
2024-04-18T19:20:53.123Z,2.13
2024-04-18T19:25:54.694Z,2.10
2024-04-18T19:30:56.231Z,2.30
2024-04-18T19:35:57.795Z,2.60
2024-04-18T19:40:59.340Z,2.33
2024-04-18T19:46:00.913Z,2.20
2024-04-18T19:51:02.450Z,2.37
2024-04-18T19:56:04.012Z,2.60
2024-04-18T20:01:06.966Z,2.10
2024-04-18T20:06:08.748Z,2.43
2024-04-18T20:11:10.337Z,2.23
2024-04-18T20:16:11.891Z,2.23
2024-04-18T20:21:13.453Z,2.00
2024-04-18T20:26:15.026Z,2.23
2024-04-18T20:31:16.587Z,2.57
2024-04-18T20:36:18.168Z,2.30
2024-04-18T20:41:19.748Z,2.40
2024-04-18T20:46:21.273Z,2.70
2024-04-18T20:51:22.820Z,2.30
2024-04-18T20:56:24.363Z,1.87
2024-04-18T21:01:25.985Z,2.37
2024-04-18T21:06:27.648Z,2.20
2024-04-18T21:11:29.418Z,2.30
2024-04-18T21:16:31.045Z,2.17
2024-04-18T21:21:32.678Z,2.10
2024-04-18T21:26:34.301Z,2.13
2024-04-18T21:31:35.882Z,2.17
2024-04-18T21:36:37.539Z,2.07
2024-04-18T21:41:39.458Z,2.60
2024-04-18T21:46:41.115Z,1.90
2024-04-18T21:51:42.765Z,2.40
2024-04-18T21:56:44.435Z,1.87
2024-04-18T22:01:46.047Z,2.40
2024-04-18T22:06:47.661Z,2.17
2024-04-18T22:11:49.305Z,2.20
2024-04-18T22:16:50.893Z,1.80
2024-04-18T22:21:52.522Z,2.00
2024-04-18T22:26:54.135Z,2.10
2024-04-18T22:31:55.726Z,2.20
2024-04-18T22:36:57.349Z,1.87
2024-04-18T22:41:58.983Z,2.60
2024-04-18T22:47:00.564Z,2.10
2024-04-18T22:52:02.153Z,2.37
2024-04-18T22:57:03.737Z,2.20
2024-04-18T23:02:05.343Z,2.80
2024-04-18T23:07:06.940Z,1.90
2024-04-18T23:12:08.636Z,2.27
2024-04-18T23:17:10.270Z,2.60
2024-04-18T23:22:11.848Z,2.23
2024-04-18T23:27:13.490Z,1.97
2024-04-18T23:32:15.135Z,2.17
2024-04-18T23:37:16.750Z,2.10
2024-04-18T23:42:18.345Z,2.23
2024-04-18T23:47:19.927Z,2.53
2024-04-18T23:52:21.563Z,2.30
2024-04-18T23:57:23.212Z,2.40
